Time;durP1;ratioP1;P1;durP2;ratioP2;P2;SDS_P1;SDS_P2;PMS_P1;PMS_P2;Temp;Humidity;BMP_temperature;BMP_pressure;BME280_temperature;BME280_humidity;BME280_pressure;Samples;Min_cycle;Max_cycle;Signal;HPM_P1;HPM_P2
2022/07/13 00:00:26;;;;;;;;;6.50;6.50;;;;;26.67;30.13;101297.69;6303819;22;45234;-63
2022/07/13 00:02:53;;;;;;;;;9.00;7.25;;;;;26.62;29.98;101289.19;6302224;22;46928;-63
2022/07/13 00:05:18;;;;;;;;;8.50;7.25;;;;;26.58;30.68;101286.94;6302844;22;45182;-63
2022/07/13 00:07:43;;;;;;;;;8.25;6.75;;;;;26.54;30.60;101289.09;6303585;22;45196;-60
2022/07/13 00:10:09;;;;;;;;;7.50;7.50;;;;;26.52;30.65;101291.09;6303505;22;45834;-63
2022/07/13 00:12:34;;;;;;;;;8.25;6.75;;;;;26.42;31.14;101276.78;6303913;22;46261;-62
2022/07/13 00:15:00;;;;;;;;;10.00;8.00;;;;;26.45;31.13;101292.66;6302726;22;45463;-62
2022/07/13 00:17:25;;;;;;;;;7.00;6.75;;;;;26.39;31.09;101289.56;6302300;22;45426;-66
2022/07/13 00:19:50;;;;;;;;;7.50;7.00;;;;;26.35;31.26;101288.16;6301124;22;45485;-66
2022/07/13 00:22:16;;;;;;;;;6.25;6.25;;;;;26.34;30.86;101291.03;6302290;22;45264;-65
2022/07/13 00:24:41;;;;;;;;;7.25;7.25;;;;;26.29;30.92;101287.94;6300008;22;45255;-65
2022/07/13 00:27:07;;;;;;;;;10.75;8.00;;;;;26.28;30.88;101291.63;6303854;22;45305;-67
2022/07/13 00:29:32;;;;;;;;;7.50;7.50;;;;;26.24;31.29;101282.97;6303296;22;45541;-65
2022/07/13 00:31:57;;;;;;;;;9.25;7.25;;;;;26.21;31.73;101288.66;6301922;22;45477;-65
2022/07/13 00:34:23;;;;;;;;;10.75;8.50;;;;;26.15;31.58;101278.47;6301273;22;45500;-64
2022/07/13 00:36:48;;;;;;;;;6.75;6.75;;;;;26.16;31.58;101281.03;6303255;22;45329;-63
2022/07/13 00:39:13;;;;;;;;;5.25;5.25;;;;;26.11;31.47;101286.81;6304846;22;45513;-64
2022/07/13 00:41:48;;;;;;;;;10.50;9.50;;;;;26.06;31.80;101281.00;6306177;22;46509;-62
2022/07/13 00:44:15;;;;;;;;;11.00;7.50;;;;;26.07;32.03;101276.50;6303519;22;45333;-66
2022/07/13 00:46:44;;;;;;;;;8.00;7.50;;;;;26.04;32.15;101280.31;6302595;22;45323;-63
2022/07/13 00:49:11;;;;;;;;;9.25;7.25;;;;;26.02;31.78;101270.69;6302067;22;45275;-64
2022/07/13 00:51:37;;;;;;;;;8.75;8.75;;;;;25.98;32.03;101270.13;6303114;22;46527;-66
2022/07/13 00:54:03;;;;;;;;;6.25;6.25;;;;;25.91;32.06;101264.44;6303298;22;45372;-63
2022/07/13 00:56:30;;;;;;;;;8.00;6.50;;;;;25.93;31.98;101267.00;6302037;22;45393;-66
2022/07/13 00:58:57;;;;;;;;;6.25;6.25;;;;;25.83;32.19;101256.25;6301679;22;45348;-62
2022/07/13 01:01:22;;;;;;;;;7.00;6.50;;;;;25.85;31.77;101265.03;6301703;22;45297;-64
2022/07/13 01:03:48;;;;;;;;;7.75;6.00;;;;;25.84;31.83;101262.50;6302597;22;45215;-63
2022/07/13 01:06:13;;;;;;;;;4.75;4.75;;;;;25.79;32.00;101263.78;6301754;22;45270;-63
2022/07/13 01:08:38;;;;;;;;;6.00;6.00;;;;;25.77;32.26;101262.22;6304034;22;45420;-61
2022/07/13 01:11:05;;;;;;;;;5.75;5.75;;;;;25.75;32.08;101258.81;6303255;22;46085;-60
2022/07/13 01:13:31;;;;;;;;;7.00;5.00;;;;;25.73;32.42;101255.41;6275722;22;45673;-62
2022/07/13 01:15:56;;;;;;;;;7.75;6.25;;;;;25.70;32.47;101261.97;6302939;22;45188;-62
2022/07/13 01:18:22;;;;;;;;;7.75;6.75;;;;;25.67;32.61;101259.56;6302029;22;45251;-62
2022/07/13 01:20:47;;;;;;;;;4.75;4.75;;;;;25.63;32.73;101264.38;6302784;22;46268;-62
2022/07/13 01:23:17;;;;;;;;;6.50;6.50;;;;;25.62;32.62;101264.53;6303118;22;45309;-62
2022/07/13 01:25:42;;;;;;;;;6.50;6.50;;;;;25.59;32.45;101262.13;6301897;22;45239;-62
2022/07/13 01:28:08;;;;;;;;;6.00;6.00;;;;;25.56;32.23;101262.41;6303272;22;45165;-64
2022/07/13 01:30:35;;;;;;;;;7.25;5.50;;;;;25.52;32.61;101259.13;6275073;22;47412;-64
2022/07/13 01:33:00;;;;;;;;;6.00;6.00;;;;;25.51;32.74;101263.69;6305066;22;45397;-65
2022/07/13 01:35:26;;;;;;;;;5.75;5.75;;;;;25.48;32.54;101269.38;6305718;22;45350;-63
2022/07/13 01:37:53;;;;;;;;;6.00;5.25;;;;;25.47;32.74;101264.97;6303214;22;45195;-62
2022/07/13 01:40:19;;;;;;;;;9.75;8.00;;;;;25.44;32.92;101262.50;6301562;22;46239;-65
2022/07/13 01:42:46;;;;;;;;;4.50;4.50;;;;;25.41;32.73;101260.09;6303879;22;45353;-66
2022/07/13 01:45:13;;;;;;;;;8.00;8.00;;;;;25.40;32.77;101261.09;6304089;22;45260;-64
2022/07/13 01:47:40;;;;;;;;;5.75;5.75;;;;;25.38;33.00;101261.25;6303723;22;45250;-61
2022/07/13 01:50:09;;;;;;;;;7.75;6.25;;;;;25.35;33.16;101256.16;6299951;22;45287;-62
2022/07/13 01:52:38;;;;;;;;;7.25;7.25;;;;;25.33;33.35;101254.56;6302786;22;45371;-64
2022/07/13 01:55:08;;;;;;;;;7.00;7.00;;;;;25.32;32.98;101255.56;6302207;22;45357;-64
2022/07/13 01:57:34;;;;;;;;;9.00;8.25;;;;;25.30;33.16;101257.56;6304071;22;45628;-65
2022/07/13 02:00:20;;;;;;;;;8.00;7.00;;;;;25.30;33.50;101258.41;6302223;22;46264;-63
2022/07/13 02:02:47;;;;;;;;;5.00;5.00;;;;;25.31;33.11;101246.66;6301594;22;45364;-66
2022/07/13 02:05:13;;;;;;;;;8.75;7.25;;;;;25.33;33.52;101251.88;6302611;22;45166;-65
2022/07/13 02:07:40;;;;;;;;;7.50;7.50;;;;;25.35;33.36;101241.81;6302553;22;45274;-64
2022/07/13 02:10:07;;;;;;;;;7.25;7.25;;;;;25.37;33.48;101238.00;6303040;22;46297;-64
2022/07/13 02:12:33;;;;;;;;;8.00;6.00;;;;;25.41;33.47;101246.63;6301380;22;45423;-65
2022/07/13 02:14:58;;;;;;;;;10.25;7.50;;;;;25.46;33.47;101233.66;6301066;22;45368;-64
2022/07/13 02:17:24;;;;;;;;;8.00;6.25;;;;;25.50;33.30;101231.50;6302657;22;45771;-64
2022/07/13 02:19:50;;;;;;;;;7.00;6.00;;;;;25.52;33.29;101227.69;6302968;22;46083;-65
2022/07/13 02:22:15;;;;;;;;;7.50;7.50;;;;;25.58;32.93;101225.41;6302665;22;45365;-64
2022/07/13 02:24:40;;;;;;;;;9.25;7.75;;;;;25.61;32.81;101228.66;6303478;22;45344;-64
2022/07/13 02:27:06;;;;;;;;;7.50;7.50;;;;;25.66;32.98;101228.22;6304495;22;45352;-62
2022/07/13 02:29:31;;;;;;;;;7.00;7.00;;;;;25.67;33.18;101229.91;6303038;22;46140;-61
2022/07/13 02:31:56;;;;;;;;;8.75;8.75;;;;;25.68;32.97;101228.94;6304488;22;45308;-62
2022/07/13 02:34:27;;;;;;;;;8.25;8.00;;;;;25.70;33.33;101224.25;6303232;22;45469;-63
2022/07/13 02:36:55;;;;;;;;;9.00;9.00;;;;;25.68;33.22;101212.75;6302802;22;45391;-65
2022/07/13 02:39:21;;;;;;;;;7.50;7.50;;;;;25.72;32.59;101222.25;6302104;22;45367;-64
2022/07/13 02:41:46;;;;;;;;;7.25;7.25;;;;;25.72;32.53;101222.25;6302556;22;45244;-60
2022/07/13 02:44:12;;;;;;;;;4.25;4.25;;;;;25.71;33.19;101217.84;6276630;22;45316;-62
2022/07/13 02:46:37;;;;;;;;;8.00;6.50;;;;;25.71;32.82;101214.31;6302342;22;45607;-61
2022/07/13 02:49:02;;;;;;;;;5.25;4.75;;;;;25.72;32.76;101208.78;6302834;22;45162;-62
2022/07/13 02:51:28;;;;;;;;;6.00;6.00;;;;;25.74;33.28;101214.00;6301990;22;45243;-62
2022/07/13 02:53:53;;;;;;;;;9.25;8.00;;;;;25.73;32.80;101212.31;6301323;22;45237;-61
2022/07/13 02:56:18;;;;;;;;;8.00;7.00;;;;;25.72;32.94;101207.91;6302021;22;45237;-61
2022/07/13 02:58:44;;;;;;;;;8.00;8.00;;;;;25.74;33.06;101217.56;6300841;22;45912;-61
2022/07/13 03:01:09;;;;;;;;;8.00;8.00;;;;;25.72;33.17;101206.09;6302827;22;45119;-64
2022/07/13 03:03:34;;;;;;;;;9.00;8.00;;;;;25.71;33.31;101209.78;6300298;22;45294;-63
2022/07/13 03:06:01;;;;;;;;;8.75;8.00;;;;;25.73;33.61;101217.69;6303141;22;45231;-61
2022/07/13 03:08:26;;;;;;;;;13.25;8.75;;;;;25.74;33.34;101220.25;6302399;22;45259;-61
2022/07/13 03:10:51;;;;;;;;;9.00;6.75;;;;;25.73;34.02;101217.69;6302680;22;45469;-61
2022/07/13 03:13:17;;;;;;;;;11.25;9.75;;;;;25.72;33.87;101213.31;6299923;22;45464;-60
2022/07/13 03:15:42;;;;;;;;;9.00;9.00;;;;;25.71;33.58;101217.00;6300938;22;45290;-62
2022/07/13 03:18:07;;;;;;;;;8.75;8.25;;;;;25.70;34.13;101218.84;6303174;22;45262;-62
2022/07/13 03:20:34;;;;;;;;;7.00;7.00;;;;;25.69;34.07;101218.97;6301015;22;45443;-62
2022/07/13 03:22:59;;;;;;;;;7.25;7.25;;;;;25.64;34.08;101214.88;6301274;22;45310;-63
2022/07/13 03:25:25;;;;;;;;;6.75;6.75;;;;;25.64;34.62;101219.44;6305683;22;45211;-61
2022/07/13 03:27:50;;;;;;;;;7.25;7.25;;;;;25.61;34.93;101225.94;6304447;22;46366;-62
2022/07/13 03:30:16;;;;;;;;;8.25;8.25;;;;;25.56;34.51;101219.31;6306302;22;45214;-64
2022/07/13 03:32:41;;;;;;;;;11.25;9.25;;;;;25.57;34.71;101218.31;6305000;22;45260;-62
2022/07/13 03:35:07;;;;;;;;;10.25;8.00;;;;;25.50;34.93;101213.50;6305263;22;45239;-61
2022/07/13 03:37:32;;;;;;;;;9.50;9.50;;;;;25.50;35.23;101218.91;6305614;22;46717;-61
2022/07/13 03:39:58;;;;;;;;;12.75;10.50;;;;;25.51;35.12;101217.03;6305548;22;45469;-63
2022/07/13 03:42:23;;;;;;;;;10.50;9.00;;;;;25.49;34.98;101219.91;6305039;22;45585;-61
2022/07/13 03:44:48;;;;;;;;;15.75;15.75;;;;;25.45;35.23;101212.19;6306240;22;45545;-62
2022/07/13 03:47:13;;;;;;;;;12.00;12.00;;;;;25.44;34.79;101213.19;6275874;22;46066;-62
2022/07/13 03:49:39;;;;;;;;;6.50;4.50;;;;;25.46;35.24;101222.00;6303979;22;45387;-62
2022/07/13 03:52:04;;;;;;;;;8.00;8.00;;;;;25.44;35.46;101218.59;6304928;22;45342;-62
2022/07/13 03:54:31;;;;;;;;;7.75;7.00;;;;;25.42;35.39;101216.03;6303606;22;45303;-63
2022/07/13 03:56:58;;;;;;;;;7.00;7.00;;;;;25.40;35.84;101223.38;6303608;22;45463;-63
2022/07/13 03:59:23;;;;;;;;;7.50;7.25;;;;;25.39;35.54;101227.06;6303795;22;45215;-62
2022/07/13 04:01:49;;;;;;;;;11.25;8.50;;;;;25.40;35.75;101228.78;6302914;22;45295;-63
2022/07/13 04:04:14;;;;;;;;;6.25;6.25;;;;;25.39;36.12;101224.38;6301338;22;45498;-63
2022/07/13 04:06:39;;;;;;;;;8.75;8.00;;;;;25.39;35.79;101221.69;6302809;22;45911;-61
2022/07/13 04:09:05;;;;;;;;;7.50;7.25;;;;;25.41;35.98;101229.63;6302267;22;45314;-63
2022/07/13 04:11:30;;;;;;;;;9.50;9.50;;;;;25.40;36.01;101228.78;6301575;22;45353;-65
2022/07/13 04:13:55;;;;;;;;;7.75;7.75;;;;;25.39;36.05;101221.69;6301624;22;45535;-64
2022/07/13 04:16:21;;;;;;;;;11.00;9.75;;;;;25.41;36.13;101225.09;6304570;22;45818;-63
2022/07/13 04:18:46;;;;;;;;;8.75;8.75;;;;;25.43;35.75;101227.66;6304533;22;45318;-67
2022/07/13 04:21:13;;;;;;;;;9.50;8.25;;;;;25.44;36.40;101230.19;6304619;22;45289;-65
2022/07/13 04:23:40;;;;;;;;;8.00;8.00;;;;;25.45;36.04;101220.28;6305131;22;45610;-63
2022/07/13 04:26:05;;;;;;;;;10.50;8.75;;;;;25.45;35.68;101218.47;6303369;22;46355;-62
2022/07/13 04:28:30;;;;;;;;;8.00;8.00;;;;;25.48;36.11;101222.72;6303620;22;45180;-63
2022/07/13 04:30:56;;;;;;;;;8.00;7.50;;;;;25.46;36.47;101213.94;6304383;22;45391;-63
2022/07/13 04:33:21;;;;;;;;;11.00;8.00;;;;;25.52;35.71;101221.44;6276051;22;45310;-61
2022/07/13 04:35:46;;;;;;;;;9.00;9.00;;;;;25.55;36.21;101214.94;6303933;22;45628;-63
2022/07/13 04:38:12;;;;;;;;;8.25;8.25;;;;;25.59;35.87;101213.63;6303367;22;45315;-63
2022/07/13 04:40:38;;;;;;;;;11.50;11.50;;;;;25.61;36.18;101220.56;6303409;22;45350;-64
2022/07/13 04:43:04;;;;;;;;;9.75;8.25;;;;;25.64;35.66;101216.75;6303701;22;45303;-63
2022/07/13 04:45:29;;;;;;;;;8.00;8.00;;;;;25.61;35.52;101204.41;6275651;22;47138;-63
2022/07/13 04:47:54;;;;;;;;;12.25;10.00;;;;;25.72;35.77;101214.16;6302951;22;45404;-63
2022/07/13 04:50:20;;;;;;;;;9.50;7.25;;;;;25.75;35.65;101215.72;6306167;22;45242;-61
2022/07/13 04:52:45;;;;;;;;;8.25;7.75;;;;;25.79;35.87;101211.72;6305110;22;45419;-62
2022/07/13 04:55:10;;;;;;;;;10.00;10.00;;;;;25.84;35.70;101212.13;6302723;22;46157;-62
2022/07/13 04:57:36;;;;;;;;;12.25;10.50;;;;;25.91;35.60;101215.94;6302698;22;45231;-63
2022/07/13 05:00:04;;;;;;;;;7.50;7.50;;;;;25.90;35.67;101208.00;6303209;22;45403;-62
2022/07/13 05:02:29;;;;;;;;;8.75;6.25;;;;;25.94;35.15;101210.25;6303301;22;45436;-61
2022/07/13 05:04:55;;;;;;;;;8.50;7.00;;;;;26.02;35.33;101219.47;6300698;22;53046;-61
2022/07/13 05:07:20;;;;;;;;;8.25;8.25;;;;;25.98;34.90;101194.66;6304212;22;45317;-62
2022/07/13 05:09:46;;;;;;;;;9.50;9.50;;;;;26.11;35.17;101214.03;6309788;22;45216;-62
2022/07/13 05:12:11;;;;;;;;;9.00;9.00;;;;;26.16;35.46;101215.44;6303471;22;45648;-61
2022/07/13 05:14:37;;;;;;;;;11.75;9.50;;;;;26.19;35.29;101217.84;6303504;22;46084;-62
2022/07/13 05:17:02;;;;;;;;;13.50;10.50;;;;;26.15;35.16;101209.22;6303511;22;45300;-60
2022/07/13 05:19:28;;;;;;;;;8.50;8.50;;;;;26.18;35.23;101216.16;6275421;22;45318;-62
2022/07/13 05:21:53;;;;;;;;;16.00;11.75;;;;;26.22;35.43;101233.72;6303752;22;45322;-63
2022/07/13 05:24:18;;;;;;;;;10.25;9.00;;;;;26.25;35.08;101228.91;6303533;22;45260;-63
2022/07/13 05:26:44;;;;;;;;;11.00;9.25;;;;;26.27;34.76;101223.34;6303306;22;45206;-61
2022/07/13 05:29:09;;;;;;;;;14.00;14.00;;;;;26.30;35.19;101220.34;6303993;22;45351;-62
2022/07/13 05:31:35;;;;;;;;;12.75;11.00;;;;;26.32;35.07;101223.75;6303298;22;45307;-62
2022/07/13 05:34:00;;;;;;;;;9.25;8.50;;;;;26.38;34.90;101225.84;6303429;22;46069;-62
2022/07/13 05:36:26;;;;;;;;;9.25;9.25;;;;;26.42;34.66;101221.00;6275078;22;45305;-62
2022/07/13 05:38:51;;;;;;;;;12.00;12.00;;;;;26.45;34.88;101230.63;6303451;22;45251;-62
2022/07/13 05:41:17;;;;;;;;;12.25;10.75;;;;;26.48;34.87;101228.50;6302666;22;45571;-61
2022/07/13 05:43:42;;;;;;;;;13.50;12.75;;;;;26.50;35.02;101231.91;6303060;22;45884;-60
2022/07/13 05:46:08;;;;;;;;;10.00;9.50;;;;;26.56;35.14;101237.69;6302556;22;45152;-61
2022/07/13 05:48:36;;;;;;;;;13.75;10.25;;;;;26.58;35.01;101228.44;6301526;22;45270;-62
2022/07/13 05:51:02;;;;;;;;;11.25;11.25;;;;;26.64;34.91;101229.69;6303475;22;45384;-63
2022/07/13 05:53:28;;;;;;;;;9.75;9.50;;;;;26.69;34.90;101233.63;6300807;22;45583;-63
2022/07/13 05:55:53;;;;;;;;;11.75;11.25;;;;;26.72;35.14;101220.84;6300606;22;45484;-66
2022/07/13 05:58:19;;;;;;;;;17.00;12.00;;;;;26.82;35.42;101235.94;6300787;22;45439;-62
2022/07/13 06:00:44;;;;;;;;;10.75;10.75;;;;;26.88;34.85;101233.66;6301737;22;45220;-64
2022/07/13 06:03:09;;;;;;;;;13.75;12.25;;;;;26.94;35.01;101241.16;6302530;22;45551;-63
2022/07/13 06:05:35;;;;;;;;;11.25;11.00;;;;;27.01;34.82;101239.53;6302809;22;45806;-65
2022/07/13 06:08:00;;;;;;;;;14.25;12.75;;;;;27.10;35.20;101235.94;6303437;22;45734;-69
2022/07/13 06:10:26;;;;;;;;;10.25;8.75;;;;;27.24;34.70;101239.91;6302988;22;45316;-66
2022/07/13 06:12:52;;;;;;;;;13.75;13.25;;;;;27.35;34.86;101251.47;6304521;22;46302;-66
2022/07/13 06:15:17;;;;;;;;;13.00;12.50;;;;;27.42;34.49;101236.34;6304134;22;45240;-66
2022/07/13 06:17:43;;;;;;;;;12.25;10.75;;;;;27.56;34.58;101243.06;6274682;22;45205;-67
2022/07/13 06:20:08;;;;;;;;;12.50;12.25;;;;;27.64;34.86;101247.69;6302354;22;45398;-68
2022/07/13 06:22:34;;;;;;;;;12.25;11.25;;;;;27.69;34.22;101245.38;6303033;22;45376;-66
2022/07/13 06:24:59;;;;;;;;;11.00;11.00;;;;;27.78;34.11;101246.25;6301603;22;45329;-69
2022/07/13 06:27:24;;;;;;;;;10.25;10.25;;;;;27.85;34.31;101248.19;6300759;22;45278;-67
2022/07/13 06:29:49;;;;;;;;;12.00;10.50;;;;;27.93;33.94;101244.66;6300763;22;45320;-65
2022/07/13 06:32:15;;;;;;;;;20.00;19.00;;;;;28.00;33.91;101237.59;6299607;22;45453;-66
2022/07/13 06:34:40;;;;;;;;;12.50;11.50;;;;;28.10;33.75;101245.59;6300209;22;45536;-62
2022/07/13 06:37:07;;;;;;;;;14.50;11.75;;;;;28.17;33.35;101244.97;6301206;22;45413;-65
2022/07/13 06:39:33;;;;;;;;;13.50;11.50;;;;;28.20;33.46;101231.13;6302001;22;45414;-66
2022/07/13 06:41:58;;;;;;;;;15.50;13.25;;;;;28.30;33.85;101247.25;6304656;22;46466;-62
2022/07/13 06:44:24;;;;;;;;;12.50;12.50;;;;;28.39;33.26;101247.09;6303789;22;45222;-62
2022/07/13 06:46:49;;;;;;;;;12.25;12.25;;;;;28.53;33.13;101244.78;6303187;22;45188;-68
2022/07/13 06:49:15;;;;;;;;;12.75;11.25;;;;;28.67;33.82;101243.31;6275195;22;45374;-66
2022/07/13 06:51:40;;;;;;;;;9.50;9.50;;;;;28.82;33.73;101238.97;6301236;22;45544;-65
2022/07/13 06:54:06;;;;;;;;;9.75;8.75;;;;;28.87;33.26;101233.06;6300986;22;45466;-65
2022/07/13 06:56:31;;;;;;;;;11.75;11.00;;;;;29.05;32.92;101246.44;6301907;22;45448;-65
2022/07/13 06:58:56;;;;;;;;;20.50;15.25;;;;;29.14;32.71;101247.31;6302943;22;45543;-65
2022/07/13 07:01:22;;;;;;;;;20.25;15.75;;;;;29.20;33.12;101248.50;6305199;22;45291;-66
2022/07/13 07:03:47;;;;;;;;;12.00;11.25;;;;;29.22;32.19;101241.91;6303935;22;45206;-66
2022/07/13 07:06:13;;;;;;;;;10.00;10.00;;;;;29.25;32.20;101244.28;6274744;22;45378;-69
2022/07/13 07:08:38;;;;;;;;;12.25;12.25;;;;;29.31;32.52;101248.19;6302468;22;45894;-69
2022/07/13 07:11:03;;;;;;;;;12.75;10.75;;;;;29.46;32.17;101250.22;6304123;22;45945;-71
2022/07/13 07:13:29;;;;;;;;;12.00;11.00;;;;;29.60;31.53;101246.81;6304452;22;45321;-71
2022/07/13 07:15:54;;;;;;;;;12.00;12.00;;;;;29.81;32.08;101248.13;6304813;22;45278;-71
2022/07/13 07:18:22;;;;;;;;;11.50;8.25;;;;;29.85;31.02;101244.94;6304778;22;45381;-70
2022/07/13 07:20:48;;;;;;;;;9.00;8.50;;;;;30.02;30.97;101251.16;6303976;22;45303;-67
2022/07/13 07:23:14;;;;;;;;;9.25;7.75;;;;;30.09;30.61;101248.59;6305394;22;45254;-71
2022/07/13 07:25:40;;;;;;;;;8.00;8.00;;;;;30.26;29.97;101245.81;6275359;22;45345;-70
2022/07/13 07:28:06;;;;;;;;;15.00;9.50;;;;;30.46;30.09;101244.38;6302342;22;45381;-70
2022/07/13 07:30:32;;;;;;;;;10.50;10.25;;;;;30.67;29.53;101248.34;6300340;22;46357;-70
2022/07/13 07:32:57;;;;;;;;;9.25;9.25;;;;;30.83;29.65;101246.59;6300399;22;45624;-70
2022/07/13 07:35:23;;;;;;;;;7.00;7.00;;;;;30.97;29.06;101251.25;6303235;22;45268;-71
2022/07/13 07:37:48;;;;;;;;;9.00;8.00;;;;;31.01;28.89;101252.56;6302435;22;45337;-71
2022/07/13 07:40:14;;;;;;;;;7.75;5.25;;;;;30.94;27.87;101243.47;6303825;22;45901;-71
2022/07/13 07:42:39;;;;;;;;;11.25;5.50;;;;;30.82;27.45;101234.03;6302300;22;45309;-70
2022/07/13 07:45:05;;;;;;;;;6.50;4.75;;;;;30.83;27.39;101241.16;6304113;22;45144;-70
2022/07/13 07:47:31;;;;;;;;;7.00;5.25;;;;;30.80;27.19;101255.09;6304725;22;45290;-70
2022/07/13 07:49:56;;;;;;;;;9.25;9.25;;;;;30.82;27.82;101247.63;6303806;22;46206;-70
2022/07/13 07:52:22;;;;;;;;;6.25;6.25;;;;;30.90;27.16;101239.41;6303778;22;45219;-71
2022/07/13 07:54:47;;;;;;;;;8.50;8.25;;;;;30.99;27.41;101245.63;6276071;22;45691;-71
2022/07/13 07:57:13;;;;;;;;;7.00;5.75;;;;;31.08;26.96;101238.25;6303850;22;45477;-71
2022/07/13 07:59:39;;;;;;;;;8.50;7.25;;;;;31.20;26.98;101247.69;6304292;22;45325;-70
2022/07/13 08:02:05;;;;;;;;;7.75;4.75;;;;;31.27;27.32;101247.78;6305035;22;45399;-70
2022/07/13 08:04:32;;;;;;;;;9.75;8.00;;;;;31.33;26.97;101245.22;6306007;22;45379;-70
2022/07/13 08:06:57;;;;;;;;;8.50;7.00;;;;;31.44;26.78;101241.22;6305258;22;45323;-70
2022/07/13 08:09:22;;;;;;;;;7.25;7.00;;;;;31.45;27.02;101240.19;6304659;22;45928;-71
2022/07/13 08:11:48;;;;;;;;;6.00;6.00;;;;;31.49;26.79;101235.22;6304267;22;45263;-70
2022/07/13 08:14:13;;;;;;;;;8.50;7.25;;;;;31.54;26.56;101246.38;6304331;22;45235;-69
2022/07/13 08:16:39;;;;;;;;;7.50;7.25;;;;;31.53;26.80;101244.69;6304403;22;45151;-70
2022/07/13 08:19:05;;;;;;;;;7.75;6.25;;;;;31.47;26.28;101239.97;6303376;22;46083;-70
2022/07/13 08:21:30;;;;;;;;;7.75;6.75;;;;;31.37;26.49;101242.13;6303511;22;45184;-70
2022/07/13 08:23:55;;;;;;;;;5.00;5.00;;;;;31.25;26.47;101234.41;6303795;22;45252;-70
2022/07/13 08:26:23;;;;;;;;;6.00;6.00;;;;;31.22;26.64;101234.78;6304372;22;45283;-69
2022/07/13 08:28:49;;;;;;;;;5.00;2.50;;;;;31.14;26.71;101237.53;6275365;22;46066;-71
2022/07/13 08:31:15;;;;;;;;;7.25;5.75;;;;;30.99;26.94;101237.47;6304140;22;45252;-70
2022/07/13 08:39:10;;;;;;;;;9.00;9.00;;;;;30.45;27.42;101237.25;6304343;22;45759;-69
2022/07/13 08:41:36;;;;;;;;;6.75;6.00;;;;;30.27;27.72;101242.97;6303549;22;45271;-68
2022/07/13 08:44:02;;;;;;;;;9.75;9.75;;;;;30.19;28.32;101239.41;6304218;22;45258;-70
2022/07/13 08:46:27;;;;;;;;;9.50;9.25;;;;;30.16;27.97;101243.31;6303441;22;45523;-69
2022/07/13 08:48:55;;;;;;;;;9.75;9.00;;;;;30.18;27.96;101238.56;6303918;22;45966;-70
2022/07/13 08:51:21;;;;;;;;;12.00;12.00;;;;;30.23;28.38;101232.63;6305946;22;45119;-68
2022/07/13 08:53:48;;;;;;;;;6.25;6.25;;;;;30.24;27.40;101231.59;6304184;22;45316;-70
2022/07/13 08:56:14;;;;;;;;;8.50;8.50;;;;;30.27;27.86;101232.09;6277034;22;45342;-69
2022/07/13 08:58:40;;;;;;;;;8.00;6.75;;;;;30.27;27.94;101231.25;6303604;22;46535;-70
2022/07/13 09:01:11;;;;;;;;;8.25;7.25;;;;;30.32;27.63;101231.56;6303772;22;45316;-68
2022/07/13 09:03:37;;;;;;;;;7.50;5.50;;;;;30.40;27.74;101231.50;6304633;22;45167;-70
2022/07/13 09:06:03;;;;;;;;;5.50;5.50;;;;;30.49;27.47;101226.91;6304190;22;45476;-70
2022/07/13 09:08:29;;;;;;;;;7.50;6.25;;;;;30.58;27.15;101224.97;6303493;22;45344;-69
2022/07/13 09:10:59;;;;;;;;;5.50;5.00;;;;;30.65;27.10;101223.25;6303307;22;45358;-69
2022/07/13 09:13:44;;;;;;;;;7.00;5.75;;;;;30.77;27.09;101221.00;6303700;22;45125;-69
2022/07/13 09:16:20;;;;;;;;;6.00;6.00;;;;;30.89;27.02;101222.25;6303727;22;45221;-70
2022/07/13 09:18:56;;;;;;;;;6.50;6.50;;;;;30.98;26.93;101223.06;6303866;22;45387;-70
2022/07/13 09:21:24;;;;;;;;;5.50;5.50;;;;;31.05;25.63;101223.16;6302072;22;45195;-70
2022/07/13 09:23:57;;;;;;;;;6.50;6.50;;;;;31.03;25.71;101223.34;6303131;22;45812;-70
2022/07/13 09:26:38;;;;;;;;;4.25;3.75;;;;;31.04;25.24;101224.19;6302675;22;45316;-70
2022/07/13 09:29:04;;;;;;;;;4.00;4.00;;;;;31.10;25.42;101219.91;6303720;22;45260;-70
2022/07/13 09:31:29;;;;;;;;;4.50;4.50;;;;;31.19;25.48;101221.56;6303374;22;45167;-69
2022/07/13 09:33:55;;;;;;;;;6.50;4.50;;;;;31.29;24.77;101215.88;6303885;22;45289;-70
2022/07/13 09:36:24;;;;;;;;;6.75;6.50;;;;;31.38;24.75;101224.78;6304475;22;45163;-68
2022/07/13 09:38:54;;;;;;;;;4.25;4.25;;;;;31.44;24.56;101226.75;6302480;22;46363;-69
2022/07/13 09:41:22;;;;;;;;;7.00;5.25;;;;;31.51;24.55;101222.28;6303477;22;45169;-69
2022/07/13 09:46:57;;;;;;;;;6.00;4.25;;;;;31.71;24.90;101221.72;6303710;22;45171;-69
2022/07/13 09:49:41;;;;;;;;;4.75;4.75;;;;;31.79;24.66;101224.38;6304113;22;45568;-69
2022/07/13 09:52:08;;;;;;;;;4.25;3.50;;;;;31.88;24.09;101222.44;6304066;22;45294;-70
2022/07/13 09:54:36;;;;;;;;;4.50;3.75;;;;;31.91;23.97;101220.19;6303700;22;45202;-69
2022/07/13 09:57:04;;;;;;;;;7.00;5.50;;;;;31.95;23.91;101222.53;6303385;22;45239;-70
2022/07/13 09:59:30;;;;;;;;;6.75;6.75;;;;;32.03;24.24;101217.81;6302622;22;46129;-69
2022/07/13 10:01:56;;;;;;;;;4.00;4.00;;;;;32.12;23.76;101221.31;6303621;22;45234;-70
2022/07/13 10:04:23;;;;;;;;;5.50;5.50;;;;;32.13;23.94;101214.81;6303561;22;45888;-70
2022/07/13 10:06:49;;;;;;;;;4.50;4.50;;;;;32.24;24.33;101212.66;6303679;22;45466;-70
2022/07/13 10:09:18;;;;;;;;;4.25;4.25;;;;;32.27;24.25;101217.72;6303129;22;45282;-70
2022/07/13 10:11:44;;;;;;;;;5.75;4.75;;;;;32.37;24.22;101214.72;6302433;22;45428;-69
2022/07/13 10:14:10;;;;;;;;;4.75;4.00;;;;;32.42;24.27;101218.56;6303101;22;45227;-70
2022/07/13 10:16:36;;;;;;;;;5.00;5.00;;;;;32.53;24.33;101216.38;6276665;22;45530;-69
2022/07/13 10:19:04;;;;;;;;;6.00;6.00;;;;;32.62;24.27;101220.66;6303544;22;46308;-70
2022/07/13 10:22:01;;;;;;;;;3.75;3.75;;;;;32.69;23.91;101213.41;6303779;22;45156;-69
2022/07/13 10:24:30;;;;;;;;;7.75;6.25;;;;;32.76;24.50;101214.31;6303373;22;45321;-70
2022/07/13 10:27:19;;;;;;;;;6.00;5.75;;;;;32.87;24.38;101213.00;6303675;22;45254;-69
2022/07/13 10:29:58;;;;;;;;;7.00;6.00;;;;;33.00;23.90;101215.00;6302575;22;46305;-69
2022/07/13 10:32:28;;;;;;;;;6.25;5.50;;;;;33.12;23.91;101226.19;6302445;22;45300;-69
2022/07/13 10:35:01;;;;;;;;;7.50;5.50;;;;;33.22;23.88;101215.81;6302307;22;45279;-69
2022/07/13 10:37:27;;;;;;;;;11.00;10.00;;;;;33.35;23.23;101212.34;6303300;22;45377;-69
2022/07/13 10:40:15;;;;;;;;;5.50;5.50;;;;;33.50;23.04;101214.16;6302282;22;46243;-70
2022/07/13 10:43:04;;;;;;;;;3.50;3.50;;;;;33.60;22.61;101208.38;6306490;22;45316;-71
2022/07/13 10:45:38;;;;;;;;;4.50;4.50;;;;;33.73;23.31;101207.59;6302579;22;45279;-69
2022/07/13 10:48:30;;;;;;;;;6.00;5.50;;;;;33.85;22.86;101205.97;6302377;22;45455;-70
2022/07/13 10:50:58;;;;;;;;;5.00;5.00;;;;;33.93;22.99;101207.72;6291321;22;47081;-70
2022/07/13 10:53:50;;;;;;;;;7.50;5.75;;;;;33.98;22.42;101202.50;6302206;22;45342;-70
2022/07/13 10:56:20;;;;;;;;;4.25;4.25;;;;;34.07;22.84;101208.66;6289952;22;45201;-70
2022/07/13 10:58:47;;;;;;;;;3.50;3.50;;;;;34.14;22.48;101208.66;6302806;22;45399;-71
2022/07/13 11:01:43;;;;;;;;;6.50;6.00;;;;;34.17;22.68;101203.66;6274102;22;47559;-70
2022/07/13 11:04:12;;;;;;;;;7.25;6.25;;;;;34.20;22.67;101214.16;6301642;22;45194;-71
2022/07/13 11:06:39;;;;;;;;;4.75;4.75;;;;;34.30;22.47;101199.28;6302561;22;45347;-70
2022/07/13 11:09:11;;;;;;;;;4.50;4.00;;;;;34.41;22.29;101204.16;6302762;22;45471;-70
2022/07/13 11:12:18;;;;;;;;;4.00;3.50;;;;;34.49;22.38;101204.00;6302509;22;46548;-69
2022/07/13 11:14:48;;;;;;;;;4.00;4.00;;;;;34.50;22.46;101202.13;6301832;22;45344;-68
2022/07/13 11:17:24;;;;;;;;;4.00;3.25;;;;;34.54;21.83;101195.19;6302443;22;45184;-70
2022/07/13 11:19:55;;;;;;;;;6.50;5.50;;;;;34.51;22.20;101185.50;6302410;22;45700;-69
2022/07/13 11:22:26;;;;;;;;;4.25;4.25;;;;;34.55;21.97;101196.03;6302460;22;45455;-70
2022/07/13 11:25:14;;;;;;;;;6.25;6.25;;;;;34.58;22.17;101196.47;6302431;22;45136;-70
2022/07/13 11:27:55;;;;;;;;;5.00;4.25;;;;;34.62;22.03;101186.81;6300578;22;45304;-70
2022/07/13 11:30:27;;;;;;;;;6.50;6.50;;;;;34.70;21.89;101184.94;6302185;22;45752;-69